TimeCST,TemperatureF,Dew PointF,Humidity,Sea Level PressureIn,VisibilityMPH,Wind Direction,Wind SpeedMPH,Gust SpeedMPH,PrecipitationIn,Events,Conditions,WindDirDegrees,DateUTC
12:11 AM,28.4,26.6,93,29.83,8.0,NW,12.7,-,0.00,,Scattered Clouds,320,2013-02-28 06:11:00
12:52 AM,30.0,27.0,88,29.87,8.0,NW,11.5,-,0.00,,Mostly Cloudy,320,2013-02-28 06:52:00
1:28 AM,30.2,28.4,93,29.85,5.0,NW,10.4,-,0.00,Snow,Light Snow,320,2013-02-28 07:28:00
1:52 AM,30.9,28.0,89,29.88,5.0,NW,12.7,-,0.00,Snow,Light Snow,320,2013-02-28 07:52:00
2:52 AM,30.9,28.0,89,29.88,8.0,NW,8.1,-,0.00,,Overcast,320,2013-02-28 08:52:00
3:52 AM,30.9,28.0,89,29.89,9.0,NNW,12.7,-,N/A,,Overcast,330,2013-02-28 09:52:00
4:52 AM,30.9,28.0,89,29.92,8.0,NNW,12.7,-,N/A,,Overcast,330,2013-02-28 10:52:00
5:40 AM,30.2,28.4,93,29.91,5.0,NNW,12.7,-,0.00,Snow,Light Snow,330,2013-02-28 11:40:00
5:52 AM,30.9,28.0,89,29.94,5.0,NNW,13.8,-,0.00,Snow,Light Snow,330,2013-02-28 11:52:00
6:52 AM,30.9,28.0,89,29.96,4.0,NNW,13.8,-,0.00,Snow,Light Snow,330,2013-02-28 12:52:00
7:01 AM,30.2,28.4,93,29.94,2.0,NNW,15.0,-,0.00,Snow,Light Snow,330,2013-02-28 13:01:00
7:13 AM,30.2,28.4,93,29.94,1.5,NNW,15.0,-,0.00,Snow,Light Snow,340,2013-02-28 13:13:00
7:27 AM,30.2,28.4,93,29.95,2.5,NNW,12.7,-,0.00,Snow,Light Snow,330,2013-02-28 13:27:00
7:34 AM,30.2,28.4,93,29.95,4.0,NNW,12.7,-,0.00,Snow,Light Snow,330,2013-02-28 13:34:00
7:43 AM,30.2,28.4,93,29.96,2.5,NNW,13.8,-,0.00,Snow,Light Snow,340,2013-02-28 13:43:00
7:52 AM,30.0,28.0,92,29.99,1.8,NNW,13.8,-,0.00,Snow,Light Snow,330,2013-02-28 13:52:00
8:00 AM,30.2,28.4,93,29.96,2.5,NNW,12.7,-,0.00,Snow,Light Snow,330,2013-02-28 14:00:00
8:13 AM,30.2,28.4,93,29.97,4.0,NNW,11.5,-,0.00,Snow,Light Snow,330,2013-02-28 14:13:00
8:52 AM,32.0,28.0,85,30.00,5.0,NNW,13.8,-,0.00,,Overcast,330,2013-02-28 14:52:00
9:52 AM,33.1,28.0,82,30.02,10.0,NNW,12.7,-,0.00,,Overcast,340,2013-02-28 15:52:00
10:52 AM,34.0,28.0,79,30.03,5.0,NNW,15.0,-,0.00,Snow,Light Snow,340,2013-02-28 16:52:00
11:52 AM,34.0,27.0,75,30.04,10.0,North,11.5,-,0.00,,Overcast,350,2013-02-28 17:52:00
12:52 PM,34.0,28.0,79,30.04,10.0,NW,9.2,-,N/A,,Overcast,310,2013-02-28 18:52:00
1:52 PM,34.0,27.0,75,30.05,10.0,NNW,10.4,-,N/A,,Overcast,340,2013-02-28 19:52:00
3:52 PM,34.0,27.0,75,30.07,10.0,North,9.2,-,N/A,,Overcast,350,2013-02-28 21:52:00
4:52 PM,34.0,27.0,75,30.08,10.0,NNW,8.1,-,N/A,,Overcast,330,2013-02-28 22:52:00
5:26 PM,33.8,26.6,75,30.07,10.0,NNW,8.1,-,N/A,,Overcast,340,2013-02-28 23:26:00
5:52 PM,32.0,27.0,82,30.09,10.0,NNW,8.1,-,N/A,,Overcast,340,2013-02-28 23:52:00
6:13 PM,32.0,26.6,80,30.07,7.0,NNW,6.9,-,0.00,Snow,Light Snow,340,2013-03-01 00:13:00
6:52 PM,32.0,27.0,82,30.10,9.0,NNW,8.1,-,0.00,,Overcast,340,2013-03-01 00:52:00
7:52 PM,30.9,27.0,85,30.11,7.0,NW,5.8,-,0.00,Snow,Light Snow,320,2013-03-01 01:52:00
8:29 PM,30.2,28.4,93,30.08,2.0,NW,3.5,-,0.01,Snow,Light Snow,320,2013-03-01 02:29:00
8:49 PM,30.2,28.4,93,30.08,3.0,NNW,6.9,-,0.01,Snow,Light Snow,330,2013-03-01 02:49:00
8:52 PM,30.9,28.0,89,30.11,3.0,NNW,8.1,-,0.01,Snow,Light Snow,330,2013-03-01 02:52:00
9:14 PM,30.2,28.4,93,30.09,2.5,North,8.1,-,0.00,Snow,Light Snow,360,2013-03-01 03:14:00
9:32 PM,30.2,28.4,93,30.09,3.0,NNW,6.9,-,0.00,Snow,Light Snow,340,2013-03-01 03:32:00
9:52 PM,30.0,28.0,92,30.12,4.0,NNW,6.9,-,0.00,Snow,Light Snow,340,2013-03-01 03:52:00
10:23 PM,30.2,28.4,93,30.10,5.0,NNW,6.9,-,0.00,Snow,Light Snow,340,2013-03-01 04:23:00
10:44 PM,30.2,28.4,93,30.10,2.0,North,8.1,-,0.01,Snow,Light Snow,350,2013-03-01 04:44:00
10:52 PM,30.0,27.0,88,30.12,2.0,North,9.2,-,0.01,Snow,Light Snow,350,2013-03-01 04:52:00
10:59 PM,30.2,26.6,86,30.10,2.5,North,8.1,-,0.00,Snow,Light Snow,360,2013-03-01 04:59:00
11:21 PM,30.2,26.6,86,30.10,3.0,North,6.9,-,0.00,Snow,Light Snow,10,2013-03-01 05:21:00
11:52 PM,28.9,27.0,92,30.12,2.0,NNE,8.1,-,0.00,Snow,Light Snow,20,2013-03-01 05:52:00